createdAt,value
2019-02-28T00:02:00.940Z,84.47
2019-02-28T00:07:36.139Z,84.34
2019-02-28T00:10:44.504Z,83.89
2019-02-28T00:13:12.995Z,83.98
2019-02-28T00:15:41.518Z,84.58
2019-02-28T00:18:09.974Z,84.65
2019-02-28T00:20:57.912Z,85.49
2019-02-28T00:23:45.804Z,86.62
2019-02-28T00:28:48.290Z,85.86
2019-02-28T00:33:50.482Z,85.50
2019-02-28T00:36:19.752Z,85.46
2019-02-28T00:38:49.171Z,85.61
2019-02-28T00:41:17.633Z,85.54
2019-02-28T00:43:46.418Z,85.29
2019-02-28T00:46:14.948Z,85.17
2019-02-28T00:48:43.470Z,84.87
2019-02-28T00:51:11.918Z,85.42
2019-02-28T00:53:40.406Z,85.85
2019-02-28T00:56:28.175Z,85.29
2019-02-28T01:06:41.789Z,86.58
2019-02-28T01:14:37.476Z,87.20
2019-02-28T01:17:26.743Z,85.48
2019-02-28T01:25:28.338Z,87.19
2019-02-28T01:27:56.791Z,87.44
2019-02-28T01:33:24.620Z,86.58
2019-02-28T01:35:49.343Z,86.38
2019-02-28T01:38:17.801Z,86.38
2019-02-28T01:40:46.271Z,86.18
2019-02-28T01:43:14.738Z,86.11
2019-02-28T01:45:44.299Z,87.50
2019-02-28T01:48:32.719Z,87.05
2019-02-28T01:51:01.737Z,86.91
2019-02-28T01:53:31.350Z,88.42
2019-02-28T01:56:19.018Z,87.65
2019-02-28T01:58:50.342Z,87.62
2019-02-28T02:01:18.285Z,87.32
2019-02-28T02:03:46.817Z,87.05
2019-02-28T02:06:15.291Z,88.22
2019-02-28T02:08:43.752Z,88.22
2019-02-28T02:11:31.476Z,88.05
2019-02-28T02:13:59.922Z,88.96
2019-02-28T02:16:28.405Z,87.86
2019-02-28T02:18:56.919Z,88.01
2019-02-28T02:24:33.672Z,88.04
2019-02-28T02:27:02.494Z,87.42
2019-02-28T02:29:50.305Z,87.76
2019-02-28T02:32:18.770Z,88.93
2019-02-28T02:34:47.224Z,87.86
2019-02-28T02:39:50.180Z,87.21
2019-02-28T02:42:19.492Z,88.09
2019-02-28T02:44:48.276Z,88.50
2019-02-28T02:47:16.743Z,88.48
2019-02-28T02:49:45.215Z,88.59
2019-02-28T02:52:13.672Z,88.82
2019-02-28T02:54:42.244Z,88.93
2019-02-28T02:57:13.892Z,89.66
2019-02-28T02:59:40.921Z,89.32
2019-02-28T03:02:09.377Z,90.38
2019-02-28T03:04:37.895Z,89.75
2019-02-28T03:07:06.391Z,89.80
2019-02-28T03:09:34.879Z,89.61
2019-02-28T03:12:22.484Z,89.17
2019-02-28T03:14:50.944Z,88.78
2019-02-28T03:17:19.727Z,88.52
2019-02-28T03:19:48.214Z,88.85
2019-02-28T03:22:16.671Z,88.62
2019-02-28T03:24:50.739Z,88.69
2019-02-28T03:27:34.541Z,89.38
2019-02-28T03:30:28.854Z,89.20
2019-02-28T03:35:39.724Z,89.28
2019-02-28T03:38:16.323Z,89.62
2019-02-28T03:40:44.787Z,89.62
2019-02-28T03:43:32.631Z,90.60
2019-02-28T03:48:48.560Z,89.46
2019-02-28T03:51:17.124Z,89.61
2019-02-28T03:54:04.951Z,89.85
2019-02-28T03:56:33.407Z,89.69
2019-02-28T03:59:21.096Z,89.48
2019-02-28T04:02:08.752Z,89.29
2019-02-28T04:04:37.312Z,89.41
2019-02-28T04:07:52.800Z,89.53
2019-02-28T04:10:56.086Z,89.56
2019-02-28T04:13:24.537Z,88.39
2019-02-28T04:16:07.428Z,88.68
2019-02-28T04:18:23.616Z,89.16
2019-02-28T04:21:12.201Z,89.65
2019-02-28T04:23:42.194Z,90.39
2019-02-28T04:26:10.683Z,89.98
2019-02-28T04:28:39.137Z,90.02
2019-02-28T04:33:41.627Z,90.07
2019-02-28T04:36:35.443Z,90.19
2019-02-28T04:38:59.561Z,90.31
2019-02-28T04:41:32.504Z,90.91
2019-02-28T04:43:58.274Z,91.58
2019-02-28T04:46:28.284Z,91.71
2019-02-28T04:48:56.899Z,90.58
2019-02-28T04:51:25.387Z,90.12
2019-02-28T04:53:53.883Z,89.24
2019-02-28T04:56:22.290Z,90.31
2019-02-28T04:58:51.143Z,90.14
2019-02-28T05:01:19.599Z,90.21
2019-02-28T05:03:48.051Z,90.54
2019-02-28T05:06:18.257Z,91.08
2019-02-28T05:09:05.987Z,90.56
2019-02-28T05:14:27.793Z,89.48
2019-02-28T05:19:32.338Z,88.98
2019-02-28T05:22:00.876Z,88.87
2019-02-28T05:24:29.331Z,88.92
2019-02-28T05:27:00.126Z,89.21
2019-02-28T05:29:27.999Z,89.33
2019-02-28T05:31:58.168Z,88.83
2019-02-28T05:37:20.509Z,88.82
2019-02-28T05:40:08.311Z,88.51
2019-02-28T05:42:36.793Z,89.17
2019-02-28T05:45:48.567Z,89.28
2019-02-28T05:48:15.837Z,90.22
2019-02-28T05:50:44.283Z,89.40
2019-02-28T05:53:13.113Z,88.90
2019-02-28T05:55:41.602Z,89.02
2019-02-28T05:58:10.046Z,89.39
2019-02-28T06:00:38.642Z,89.56
2019-02-28T06:03:29.541Z,90.06
2019-02-28T06:05:56.770Z,90.82
2019-02-28T06:08:25.244Z,91.02
2019-02-28T06:11:14.651Z,90.46
2019-02-28T06:14:02.286Z,90.60
2019-02-28T06:16:50.237Z,91.55
2019-02-28T06:19:40.244Z,91.69
2019-02-28T06:22:08.067Z,91.63
2019-02-28T06:24:55.684Z,91.22
2019-02-28T06:27:24.354Z,90.94
2019-02-28T06:29:54.355Z,90.45
2019-02-28T06:32:23.750Z,90.25
2019-02-28T06:34:53.027Z,91.13
2019-02-28T06:37:23.973Z,91.02
2019-02-28T06:39:52.004Z,90.82
2019-02-28T06:43:00.756Z,90.14
2019-02-28T06:45:48.533Z,90.97
2019-02-28T06:51:10.595Z,91.19
2019-02-28T06:56:16.350Z,89.70
2019-02-28T06:58:44.733Z,89.00
2019-02-28T07:01:13.191Z,89.39
2019-02-28T07:03:42.539Z,88.90
2019-02-28T07:06:11.857Z,89.67
2019-02-28T07:09:02.524Z,89.90
2019-02-28T07:11:29.789Z,90.14
2019-02-28T07:13:58.248Z,90.15
2019-02-28T07:16:26.735Z,90.49
2019-02-28T07:18:55.187Z,89.12
2019-02-28T07:21:23.652Z,88.44
2019-02-28T07:23:53.304Z,87.96
2019-02-28T07:26:22.400Z,87.57
2019-02-28T07:28:50.914Z,87.32
2019-02-28T07:31:21.759Z,86.60
2019-02-28T07:33:51.342Z,87.17
2019-02-28T07:36:20.478Z,86.98
2019-02-28T07:41:26.354Z,86.79
2019-02-28T07:44:12.911Z,86.42
2019-02-28T07:47:00.716Z,85.54
2019-02-28T07:52:03.701Z,83.81
2019-02-28T07:57:25.098Z,84.18
2019-02-28T08:02:27.720Z,83.62
2019-02-28T08:04:56.214Z,83.74
2019-02-28T08:07:24.699Z,82.55
2019-02-28T08:09:53.156Z,81.97
2019-02-28T08:12:21.627Z,82.86
2019-02-28T08:14:50.082Z,82.95
2019-02-28T08:17:19.413Z,81.80
2019-02-28T08:20:07.781Z,81.74
2019-02-28T08:22:56.666Z,81.05
2019-02-28T08:25:26.019Z,80.63
2019-02-28T08:27:59.071Z,80.37
2019-02-28T08:31:04.564Z,79.94
2019-02-28T08:33:52.207Z,79.44
2019-02-28T08:36:20.989Z,79.50
2019-02-28T08:42:02.788Z,80.11
2019-02-28T08:44:28.085Z,79.97
2019-02-28T08:46:56.612Z,79.49
2019-02-28T08:49:25.082Z,78.93
2019-02-28T08:52:12.765Z,78.83
2019-02-28T08:55:03.049Z,78.83
2019-02-28T08:57:30.724Z,78.69
2019-02-28T08:59:59.163Z,75.36
2019-02-28T09:02:27.633Z,76.51
2019-02-28T09:04:56.499Z,76.49
2019-02-28T09:07:24.937Z,76.10
2019-02-28T09:09:53.685Z,75.03
2019-02-28T09:12:22.097Z,74.90
2019-02-28T09:14:51.925Z,74.43
2019-02-28T09:17:40.406Z,73.91
2019-02-28T09:20:48.841Z,73.17
2019-02-28T09:23:37.663Z,73.24
2019-02-28T09:26:06.990Z,72.92
2019-02-28T09:28:35.527Z,73.03
2019-02-28T09:31:23.257Z,72.84
2019-02-28T09:33:51.984Z,72.72
2019-02-28T09:36:21.504Z,72.35
2019-02-28T09:38:56.868Z,72.43
2019-02-28T09:41:21.114Z,72.46
2019-02-28T09:43:49.551Z,72.28
2019-02-28T09:48:52.522Z,71.32
2019-02-28T09:51:21.092Z,70.67
2019-02-28T09:53:50.308Z,70.58
2019-02-28T09:56:41.102Z,69.75
2019-02-28T10:01:43.743Z,68.06
2019-02-28T10:04:12.217Z,67.69
2019-02-28T10:06:40.963Z,67.32
2019-02-28T10:09:09.776Z,67.08
2019-02-28T10:11:40.420Z,66.11
2019-02-28T10:14:28.824Z,65.53
2019-02-28T10:16:58.019Z,65.38
2019-02-28T10:19:26.482Z,65.67
2019-02-28T10:21:55.307Z,64.91
2019-02-28T10:24:43.208Z,64.11
2019-02-28T10:27:11.649Z,63.53
2019-02-28T10:29:41.821Z,63.23
2019-02-28T10:32:10.267Z,63.11
2019-02-28T10:34:38.726Z,62.13
2019-02-28T10:37:07.469Z,62.19
2019-02-28T10:39:35.956Z,62.24
2019-02-28T10:42:23.710Z,62.09
2019-02-28T10:44:52.482Z,61.65
2019-02-28T10:47:20.910Z,61.94
2019-02-28T10:49:49.423Z,61.54
2019-02-28T10:55:11.548Z,61.55
2019-02-28T10:57:59.275Z,61.46
2019-02-28T11:01:08.722Z,61.32
2019-02-28T11:03:57.775Z,61.66
2019-02-28T11:12:48.551Z,60.89
2019-02-28T11:15:56.941Z,60.79
2019-02-28T11:18:44.730Z,60.89
2019-02-28T11:24:23.694Z,60.67
2019-02-28T11:26:51.830Z,60.45
2019-02-28T11:29:20.271Z,60.62
2019-02-28T11:32:29.403Z,59.92
2019-02-28T11:34:59.371Z,59.84
2019-02-28T11:41:02.738Z,57.78
2019-02-28T11:49:34.681Z,57.30
2019-02-28T11:54:50.658Z,57.08
2019-02-28T11:57:20.603Z,56.97
2019-02-28T12:02:29.358Z,56.10
2019-02-28T12:04:57.894Z,56.21
2019-02-28T12:07:26.332Z,55.53
2019-02-28T12:09:55.683Z,55.24
2019-02-28T12:12:44.672Z,55.15
2019-02-28T12:15:55.333Z,55.13
2019-02-28T12:18:26.071Z,55.64
2019-02-28T12:20:54.090Z,55.14
2019-02-28T12:26:01.919Z,55.13
2019-02-28T12:28:30.505Z,55.71
2019-02-28T12:31:18.364Z,55.79
2019-02-28T12:34:28.905Z,56.04
2019-02-28T12:36:56.990Z,55.73
2019-02-28T12:39:25.436Z,55.33
2019-02-28T12:42:13.388Z,55.07
2019-02-28T12:44:42.162Z,54.81
2019-02-28T12:49:58.157Z,54.64
2019-02-28T12:55:54.335Z,53.81
2019-02-28T12:58:22.785Z,53.41
2019-02-28T13:01:10.442Z,53.45
2019-02-28T13:04:00.592Z,53.13
2019-02-28T13:06:47.682Z,52.90
2019-02-28T13:09:35.513Z,53.02
2019-02-28T13:14:58.630Z,52.23
2019-02-28T13:17:28.294Z,52.43
2019-02-28T13:20:37.442Z,51.88
2019-02-28T13:23:25.212Z,52.11
2019-02-28T13:25:58.836Z,51.81
2019-02-28T13:28:23.890Z,51.71
2019-02-28T13:30:52.742Z,51.99
2019-02-28T13:35:55.006Z,51.91
2019-02-28T13:38:23.794Z,52.08
2019-02-28T13:40:59.633Z,52.35
2019-02-28T13:43:47.275Z,52.27
2019-02-28T13:46:15.798Z,52.58
2019-02-28T13:49:03.684Z,51.94
2019-02-28T13:51:51.427Z,50.65
2019-02-28T13:54:19.961Z,49.47
2019-02-28T13:56:48.471Z,49.40
2019-02-28T13:59:17.008Z,49.79
2019-02-28T14:01:45.471Z,50.34
2019-02-28T14:04:14.005Z,50.75
2019-02-28T14:06:42.455Z,50.63
2019-02-28T14:12:24.705Z,51.33
2019-02-28T14:14:53.168Z,52.03
2019-02-28T14:17:41.250Z,51.74
2019-02-28T14:20:49.624Z,51.70
2019-02-28T14:23:20.653Z,52.42
2019-02-28T14:25:48.682Z,52.98
2019-02-28T14:28:36.454Z,52.58
2019-02-28T14:31:24.180Z,52.22
2019-02-28T14:33:54.489Z,51.35
2019-02-28T14:36:45.092Z,51.27
2019-02-28T14:39:52.512Z,51.10
2019-02-28T14:42:20.943Z,50.00
2019-02-28T14:44:49.379Z,50.09
2019-02-28T14:47:17.947Z,50.78
2019-02-28T14:49:47.303Z,50.51
2019-02-28T14:52:15.738Z,49.94
2019-02-28T14:54:44.198Z,49.47
2019-02-28T15:00:21.203Z,49.43
2019-02-28T15:03:29.554Z,49.20
2019-02-28T15:05:58.014Z,48.99
2019-02-28T15:08:27.192Z,49.06
2019-02-28T15:11:36.894Z,48.41
2019-02-28T15:14:05.631Z,48.46
2019-02-28T15:16:35.643Z,49.00
2019-02-28T15:19:24.369Z,49.75
2019-02-28T15:21:53.883Z,49.99
2019-02-28T15:24:43.771Z,49.26
2019-02-28T15:27:11.753Z,48.75
2019-02-28T15:29:40.191Z,48.63
2019-02-28T15:32:08.664Z,49.09
2019-02-28T15:34:37.471Z,49.62
2019-02-28T15:37:26.742Z,49.97
2019-02-28T15:39:55.271Z,50.44
2019-02-28T15:42:23.775Z,50.42
2019-02-28T15:45:11.430Z,52.20
2019-02-28T15:58:50.999Z,55.17
2019-02-28T16:01:19.504Z,56.81
2019-02-28T16:03:48.321Z,57.46
2019-02-28T16:06:37.526Z,57.83
2019-02-28T16:09:45.956Z,58.41
2019-02-28T16:12:15.260Z,58.85
2019-02-28T16:15:05.599Z,58.88
2019-02-28T16:17:54.141Z,59.95
2019-02-28T16:20:41.771Z,60.49
2019-02-28T16:23:31.060Z,61.13
2019-02-28T16:25:59.962Z,61.87
2019-02-28T16:28:28.398Z,62.45
2019-02-28T16:30:56.954Z,63.12
2019-02-28T16:33:25.569Z,63.41
2019-02-28T16:35:54.033Z,63.87
2019-02-28T16:38:42.491Z,64.24
2019-02-28T16:41:12.193Z,64.20
2019-02-28T16:46:30.114Z,64.53
2019-02-28T16:48:58.242Z,65.29
2019-02-28T16:51:29.420Z,65.49
2019-02-28T16:53:57.482Z,65.76
2019-02-28T16:56:25.913Z,65.99
2019-02-28T16:58:57.290Z,65.60
2019-02-28T17:04:00.387Z,65.66
2019-02-28T17:09:22.094Z,65.52
2019-02-28T17:14:29.661Z,65.57
2019-02-28T17:17:17.478Z,65.60
2019-02-28T17:19:46.885Z,66.22
2019-02-28T17:22:15.316Z,66.80
2019-02-28T17:24:46.123Z,67.15
2019-02-28T17:27:33.455Z,67.42
2019-02-28T17:32:51.069Z,67.97
2019-02-28T17:35:38.821Z,68.35
2019-02-28T17:38:07.273Z,68.69
2019-02-28T17:40:55.015Z,68.58
2019-02-28T17:43:24.435Z,69.33
2019-02-28T17:45:53.653Z,70.05
2019-02-28T17:49:01.774Z,70.54
2019-02-28T17:52:10.122Z,70.12
2019-02-28T17:55:18.584Z,71.28
2019-02-28T17:58:27.449Z,70.92
2019-02-28T18:01:35.699Z,71.59
2019-02-28T18:04:44.103Z,71.84
2019-02-28T18:07:51.449Z,72.28
2019-02-28T18:11:00.105Z,72.25
2019-02-28T18:14:08.732Z,72.59
2019-02-28T18:17:15.765Z,73.13
2019-02-28T18:20:25.911Z,73.36
2019-02-28T18:23:31.917Z,73.49
2019-02-28T18:26:39.537Z,73.04
2019-02-28T18:29:46.792Z,72.98
2019-02-28T18:32:15.359Z,73.24
2019-02-28T18:35:03.190Z,73.59
2019-02-28T18:40:45.972Z,72.26
2019-02-28T18:43:14.446Z,71.82
2019-02-28T18:45:42.886Z,72.78
2019-02-28T18:51:18.309Z,73.71
2019-02-28T18:53:46.844Z,75.69
2019-02-28T18:59:09.106Z,78.20
2019-02-28T19:04:50.811Z,78.40
2019-02-28T19:07:38.735Z,78.93
2019-02-28T19:10:47.220Z,79.78
2019-02-28T19:13:35.338Z,81.33
2019-02-28T19:19:31.413Z,83.35
2019-02-28T19:22:20.009Z,83.49
2019-02-28T19:28:02.176Z,84.79
2019-02-28T19:30:51.259Z,84.41
2019-02-28T19:33:39.070Z,84.75
2019-02-28T19:36:27.305Z,84.54
2019-02-28T19:39:15.007Z,83.21
2019-02-28T19:42:03.246Z,82.59
2019-02-28T19:44:31.716Z,82.25
2019-02-28T19:47:00.202Z,82.72
2019-02-28T19:49:28.707Z,82.15
2019-02-28T19:51:57.252Z,83.11
2019-02-28T19:54:45.057Z,83.08
2019-02-28T19:57:32.646Z,82.66
2019-02-28T20:00:20.490Z,82.24
2019-02-28T20:03:08.293Z,82.16
2019-02-28T20:06:16.719Z,82.50
2019-02-28T20:09:25.110Z,82.33
2019-02-28T20:12:13.903Z,81.58
2019-02-28T20:15:01.652Z,81.47
2019-02-28T20:18:10.385Z,81.58
2019-02-28T20:20:58.304Z,80.90
2019-02-28T20:26:20.731Z,80.78
2019-02-28T20:29:08.580Z,80.03
2019-02-28T20:32:16.986Z,81.27
2019-02-28T20:35:05.832Z,85.06
2019-02-28T20:37:53.947Z,88.30
2019-02-28T20:40:42.075Z,90.18
2019-02-28T20:43:29.873Z,88.99
2019-02-28T20:46:17.776Z,88.32
2019-02-28T20:48:46.326Z,89.23
2019-02-28T20:51:14.987Z,89.91
2019-02-28T20:56:56.422Z,89.71
2019-02-28T20:59:44.662Z,88.92
2019-02-28T21:02:32.914Z,88.11
2019-02-28T21:05:03.205Z,89.97
2019-02-28T21:07:32.025Z,90.38
2019-02-28T21:10:00.623Z,89.83
2019-02-28T21:15:24.594Z,90.63
2019-02-28T21:17:52.641Z,89.71
2019-02-28T21:20:21.100Z,89.79
2019-02-28T21:23:08.768Z,88.54
2019-02-28T21:25:57.337Z,89.67
2019-02-28T21:31:01.368Z,88.38
2019-02-28T21:33:49.606Z,88.82
2019-02-28T21:36:37.227Z,88.08
2019-02-28T21:39:45.862Z,87.61
2019-02-28T21:42:14.313Z,87.13
2019-02-28T21:47:56.567Z,87.37
2019-02-28T21:50:44.281Z,87.43
2019-02-28T21:56:06.079Z,86.92
2019-02-28T21:58:34.628Z,85.72
2019-02-28T22:01:03.155Z,86.60
2019-02-28T22:03:31.585Z,86.89
2019-02-28T22:06:00.051Z,86.91
2019-02-28T22:08:47.799Z,86.75
2019-02-28T22:11:16.257Z,88.00
2019-02-28T22:13:45.053Z,86.88
2019-02-28T22:16:13.484Z,87.83
2019-02-28T22:18:42.243Z,87.98
2019-02-28T22:21:10.674Z,88.38
2019-02-28T22:23:39.462Z,86.96
2019-02-28T22:26:08.027Z,87.29
2019-02-28T22:28:36.453Z,87.49
2019-02-28T22:39:20.129Z,89.68
2019-02-28T22:41:48.558Z,90.69
2019-02-28T22:44:17.077Z,91.38
2019-02-28T22:46:45.543Z,91.52
2019-02-28T22:49:13.977Z,91.62
2019-02-28T22:51:42.406Z,93.87
2019-02-28T22:54:10.876Z,94.81
2019-02-28T22:56:39.298Z,94.27
2019-02-28T22:59:07.726Z,94.91
2019-02-28T23:02:16.112Z,95.29
2019-02-28T23:04:44.544Z,94.03
2019-02-28T23:07:12.976Z,94.72
2019-02-28T23:09:41.446Z,95.10
2019-02-28T23:12:10.133Z,95.67
2019-02-28T23:14:57.958Z,96.29
2019-02-28T23:17:26.384Z,96.91
2019-02-28T23:20:14.166Z,97.18
2019-02-28T23:22:42.717Z,97.40
2019-02-28T23:25:30.491Z,97.75
2019-02-28T23:28:37.516Z,97.82
2019-02-28T23:31:44.581Z,98.13
2019-02-28T23:34:53.016Z,97.48
2019-02-28T23:40:15.263Z,98.47
2019-02-28T23:42:43.724Z,99.18
2019-02-28T23:45:31.770Z,98.54
2019-02-28T23:48:00.236Z,97.71
2019-02-28T23:50:29.520Z,98.33
2019-02-28T23:52:57.949Z,98.62
2019-02-28T23:55:26.410Z,98.79
2019-02-28T23:57:54.843Z,97.92
